Warning: Javascript must be enabled to use all the features on this page!


Page Loading - Please Wait...

Click to hideNews Bulletins

Peak Streamflow for the Nation

USGS 03518500 TELLICO RIVER AT TELLICO PLAINS, TN

Monroe County, Tennessee
Hydrologic Unit Code 06010204
Latitude  35°21'42.98", Longitude  84°16'44.74" NAD27
Drainage area 118  square miles
Gage datum 846.64 feet above NGVD29
Output formats
Table
Graph
Tab-separated file
peakfq (watstore) format
Reselect output format
Water
Year
Date Gage
Height
(feet)
Stream-
flow
(cfs)
1840 1840-05 15.003,Bd 21,5007,Bd
1921 1921 14.003,Bm 19,2002,Bm
1926 1926-01-18 6.483 2,610
1927 1927-06-12 9.493 6,260
1928 1928-09-02 7.70 5,950
1929 1929-03-23 10.90 9,5602
1930 1929-11-17 7.20 4,820
1931 1931-04-22 7.48 3,790
1932 1932-01-30 9.47 5,990
1933 1932-12-28 9.70 6,440
1934 1934-03-03 8.90 5,560
1935 1935-03-12 8.55 5,230
1936 1936-02-04 12.20 13,200
1937 1937-01-18 9.05 6,370
1938 1938-08-05 11.39 10,900
1939 1939-02-15 8.25 4,510
1940 1940-04-19 6.00 2,540
1941 1941-03-04 3.76 1,130
1942 1942-03-17 7.19 3,520
1943 1942-12-29 9.71 6,980
1944 1944-03-28 8.45 4,760
1945 1945-02-13 8.77 5,340
1946 1946-01-07 10.04 7,640
1947 1947-01-20 11.56 11,300
1948 1948-02-12 9.59 6,440
1949 1949-01-05 10.92 9,480
1950 1949-10-30 11.433,5 10,900
1951 1951-03-29 12.82 15,100
1952 1952-03-11 9.65 6,560
1953 1953-02-21 11.24 10,400
1954 1954-01-21 11.21 10,300
1955 1955-04-06 9.35 5,960
1956 1956-04-15 9.62 6,500
1957 1957-01-31 13.60 17,500
1958 1957-11-18 9.22 5,720
1959 1959-01-21 10.40 8,180
1960 1959-11-27 10.65 8,780
1961 1961-06-21 11.95 12,400
1962 1961-12-18 12.54 14,200
1963 1963-03-06 11.63 11,500
1964 1964-04-07 12.05 12,300
1965 1965-03-26 12.56 13,800
1966 1966-02-13 10.44 7,980
1967 1967-07-07 9.56 6,180
1968 1967-12-22 9.92 6,870
1969 1969-02-02 9.35 5,800
1970 1969-12-30 9.93 6,890
1971 1971-07-31 9.05 5,310
1972 1972-07-29 9.41 5,910
1973 1973-03-16 14.18 19,900
1974 1973-11-28 9.93 6,890
1975 1975-03-30 13.21 16,200
1976 1976-05-15 10.07 7,190
1977 1977-04-04 12.07 12,400
1978 1978-01-26 8.48 4,700
1979 1979-03-04 12.97 15,300
1980 1980-03-21 11.01 9,630
1981 1981-02-10 9.33 5,990
1982 1982-01-04 11.38 10,600
2002 2002-01-25 7.64 3,740
2003 2003-05-06 13.98 19,100
2004 2004-09-17 9.16 5,680
2005 2004-11-24 11.85 11,900
2006 2006-01-17 8.07 4,180
2007 2007-03-16 4.42 1,470
2008 2008-01-11 6.04 2,430
2009 2009-01-06 11.15 9,990
2010 2009-12-09 9.10 5,570
2011 2011-04-05 9.09 5,560
2012 2011-11-28 9.64 6,580
2013 2013-01-14 11.55 11,100
2014 2014-01-11 9.60 6,420
2015 2015-07-03 9.28 5,770
2016 2015-12-02 11.70 11,500
2017 2017-05-24 5.96 2,430
2018 2018-03-01 11.20 10,100
2019 2019-01-19 8.83 5,040
2020 2020-04-13 14.15 19,800
2021 2021-08-17 12.13 12,700
?
  Peak Gage-Height Qualification Codes.
?
  Peak Streamflow Qualification Codes.